sensor_id;sensor_type;location;lat;lon;timestamp;P1;durP1;ratioP1;P2;durP2;ratioP2
840;SDS011;406;48.566;13.450;2023-07-22T00:00:30;3.00;;;2.57;;
840;SDS011;406;48.566;13.450;2023-07-22T00:02:57;5.33;;;2.63;;
840;SDS011;406;48.566;13.450;2023-07-22T00:05:24;3.70;;;2.97;;
840;SDS011;406;48.566;13.450;2023-07-22T00:07:51;7.47;;;3.37;;
840;SDS011;406;48.566;13.450;2023-07-22T00:10:18;3.13;;;2.37;;
840;SDS011;406;48.566;13.450;2023-07-22T00:12:45;4.70;;;3.30;;
840;SDS011;406;48.566;13.450;2023-07-22T00:15:12;4.37;;;2.70;;
840;SDS011;406;48.566;13.450;2023-07-22T00:17:39;5.00;;;2.83;;
840;SDS011;406;48.566;13.450;2023-07-22T00:20:07;2.67;;;2.03;;
840;SDS011;406;48.566;13.450;2023-07-22T00:22:37;4.90;;;2.20;;
840;SDS011;406;48.566;13.450;2023-07-22T00:25:07;4.20;;;2.43;;
840;SDS011;406;48.566;13.450;2023-07-22T00:27:39;3.83;;;2.23;;
840;SDS011;406;48.566;13.450;2023-07-22T00:30:07;5.63;;;2.40;;
840;SDS011;406;48.566;13.450;2023-07-22T00:32:34;4.20;;;2.20;;
840;SDS011;406;48.566;13.450;2023-07-22T00:35:04;3.27;;;2.73;;
840;SDS011;406;48.566;13.450;2023-07-22T00:37:32;4.20;;;2.63;;
840;SDS011;406;48.566;13.450;2023-07-22T00:40:00;3.47;;;2.13;;
840;SDS011;406;48.566;13.450;2023-07-22T00:42:27;6.87;;;2.30;;
840;SDS011;406;48.566;13.450;2023-07-22T00:44:54;3.00;;;2.70;;
840;SDS011;406;48.566;13.450;2023-07-22T00:47:21;3.67;;;2.67;;
840;SDS011;406;48.566;13.450;2023-07-22T00:49:48;3.57;;;1.87;;
840;SDS011;406;48.566;13.450;2023-07-22T00:52:15;4.13;;;2.20;;
840;SDS011;406;48.566;13.450;2023-07-22T00:54:43;3.57;;;2.30;;
840;SDS011;406;48.566;13.450;2023-07-22T00:57:09;6.17;;;2.80;;
840;SDS011;406;48.566;13.450;2023-07-22T00:59:36;4.10;;;3.00;;
840;SDS011;406;48.566;13.450;2023-07-22T01:02:02;2.70;;;2.33;;
840;SDS011;406;48.566;13.450;2023-07-22T01:04:29;2.63;;;2.13;;
840;SDS011;406;48.566;13.450;2023-07-22T01:06:59;3.20;;;2.60;;
840;SDS011;406;48.566;13.450;2023-07-22T01:09:40;4.23;;;2.67;;
840;SDS011;406;48.566;13.450;2023-07-22T01:12:07;5.60;;;3.23;;
840;SDS011;406;48.566;13.450;2023-07-22T01:14:39;4.53;;;2.27;;
840;SDS011;406;48.566;13.450;2023-07-22T01:17:07;3.27;;;2.30;;
840;SDS011;406;48.566;13.450;2023-07-22T01:19:35;3.40;;;2.40;;
840;SDS011;406;48.566;13.450;2023-07-22T01:22:03;5.83;;;2.60;;
840;SDS011;406;48.566;13.450;2023-07-22T01:24:38;3.87;;;2.60;;
840;SDS011;406;48.566;13.450;2023-07-22T01:27:08;7.53;;;2.43;;
840;SDS011;406;48.566;13.450;2023-07-22T01:29:36;4.67;;;2.73;;
840;SDS011;406;48.566;13.450;2023-07-22T01:32:02;3.97;;;2.17;;
840;SDS011;406;48.566;13.450;2023-07-22T01:34:29;3.43;;;2.23;;
840;SDS011;406;48.566;13.450;2023-07-22T01:36:57;4.17;;;2.83;;
840;SDS011;406;48.566;13.450;2023-07-22T01:39:24;3.27;;;2.80;;
840;SDS011;406;48.566;13.450;2023-07-22T01:41:51;4.10;;;2.40;;
840;SDS011;406;48.566;13.450;2023-07-22T01:44:17;4.10;;;2.60;;
840;SDS011;406;48.566;13.450;2023-07-22T01:46:44;3.87;;;2.33;;
840;SDS011;406;48.566;13.450;2023-07-22T01:49:11;3.97;;;3.17;;
840;SDS011;406;48.566;13.450;2023-07-22T01:51:39;3.13;;;2.83;;
840;SDS011;406;48.566;13.450;2023-07-22T01:54:09;6.23;;;3.43;;
840;SDS011;406;48.566;13.450;2023-07-22T01:56:36;7.03;;;3.17;;
840;SDS011;406;48.566;13.450;2023-07-22T01:59:03;3.90;;;2.70;;
840;SDS011;406;48.566;13.450;2023-07-22T02:01:31;2.93;;;2.27;;
840;SDS011;406;48.566;13.450;2023-07-22T02:03:58;3.83;;;2.87;;
840;SDS011;406;48.566;13.450;2023-07-22T02:06:25;4.20;;;2.70;;
840;SDS011;406;48.566;13.450;2023-07-22T02:08:54;4.30;;;2.93;;
840;SDS011;406;48.566;13.450;2023-07-22T02:11:21;3.83;;;2.90;;
840;SDS011;406;48.566;13.450;2023-07-22T02:13:47;4.73;;;3.10;;
840;SDS011;406;48.566;13.450;2023-07-22T02:16:14;3.10;;;2.67;;
840;SDS011;406;48.566;13.450;2023-07-22T02:18:40;4.57;;;3.40;;
840;SDS011;406;48.566;13.450;2023-07-22T02:21:08;7.13;;;3.10;;
840;SDS011;406;48.566;13.450;2023-07-22T02:23:34;4.57;;;3.17;;
840;SDS011;406;48.566;13.450;2023-07-22T02:26:01;5.30;;;3.20;;
840;SDS011;406;48.566;13.450;2023-07-22T02:28:27;3.67;;;3.20;;
840;SDS011;406;48.566;13.450;2023-07-22T02:30:54;4.70;;;2.60;;
840;SDS011;406;48.566;13.450;2023-07-22T02:33:21;3.70;;;2.40;;
840;SDS011;406;48.566;13.450;2023-07-22T02:35:48;3.93;;;3.10;;
840;SDS011;406;48.566;13.450;2023-07-22T02:38:15;3.53;;;3.07;;
840;SDS011;406;48.566;13.450;2023-07-22T02:40:43;3.23;;;2.80;;
840;SDS011;406;48.566;13.450;2023-07-22T02:43:09;4.10;;;3.27;;
840;SDS011;406;48.566;13.450;2023-07-22T02:45:36;4.37;;;3.07;;
840;SDS011;406;48.566;13.450;2023-07-22T02:48:03;4.43;;;3.80;;
840;SDS011;406;48.566;13.450;2023-07-22T02:50:30;5.40;;;3.47;;
840;SDS011;406;48.566;13.450;2023-07-22T02:52:57;3.80;;;3.07;;
840;SDS011;406;48.566;13.450;2023-07-22T02:55:23;4.87;;;3.00;;
840;SDS011;406;48.566;13.450;2023-07-22T02:57:50;3.83;;;3.17;;
840;SDS011;406;48.566;13.450;2023-07-22T03:00:17;4.60;;;3.10;;
840;SDS011;406;48.566;13.450;2023-07-22T03:02:51;3.37;;;3.07;;
840;SDS011;406;48.566;13.450;2023-07-22T03:05:19;3.20;;;2.70;;
840;SDS011;406;48.566;13.450;2023-07-22T03:07:46;3.50;;;2.90;;
840;SDS011;406;48.566;13.450;2023-07-22T03:10:12;4.13;;;3.30;;
840;SDS011;406;48.566;13.450;2023-07-22T03:12:39;3.60;;;3.30;;
840;SDS011;406;48.566;13.450;2023-07-22T03:15:05;5.50;;;3.83;;
840;SDS011;406;48.566;13.450;2023-07-22T03:17:35;6.50;;;3.23;;
840;SDS011;406;48.566;13.450;2023-07-22T03:20:03;4.83;;;3.40;;
840;SDS011;406;48.566;13.450;2023-07-22T03:22:36;6.00;;;3.50;;
840;SDS011;406;48.566;13.450;2023-07-22T03:25:03;5.63;;;3.40;;
840;SDS011;406;48.566;13.450;2023-07-22T03:27:31;6.07;;;3.50;;
840;SDS011;406;48.566;13.450;2023-07-22T03:29:58;5.87;;;4.17;;
840;SDS011;406;48.566;13.450;2023-07-22T03:32:24;4.27;;;3.43;;
840;SDS011;406;48.566;13.450;2023-07-22T03:34:51;5.03;;;3.63;;
840;SDS011;406;48.566;13.450;2023-07-22T03:37:18;4.63;;;3.57;;
840;SDS011;406;48.566;13.450;2023-07-22T03:39:46;4.57;;;3.00;;
840;SDS011;406;48.566;13.450;2023-07-22T03:42:13;6.77;;;3.00;;
840;SDS011;406;48.566;13.450;2023-07-22T03:44:39;4.07;;;3.23;;
840;SDS011;406;48.566;13.450;2023-07-22T03:47:07;7.30;;;3.37;;
840;SDS011;406;48.566;13.450;2023-07-22T03:49:33;3.63;;;3.07;;
840;SDS011;406;48.566;13.450;2023-07-22T03:52:00;6.90;;;2.60;;
840;SDS011;406;48.566;13.450;2023-07-22T03:54:26;3.77;;;3.07;;
840;SDS011;406;48.566;13.450;2023-07-22T03:56:53;4.10;;;2.80;;
840;SDS011;406;48.566;13.450;2023-07-22T03:59:19;3.73;;;2.90;;
840;SDS011;406;48.566;13.450;2023-07-22T04:01:46;4.77;;;3.00;;
840;SDS011;406;48.566;13.450;2023-07-22T04:04:13;3.90;;;2.83;;
840;SDS011;406;48.566;13.450;2023-07-22T04:06:40;6.17;;;4.17;;
840;SDS011;406;48.566;13.450;2023-07-22T04:09:07;4.37;;;3.50;;
840;SDS011;406;48.566;13.450;2023-07-22T04:11:33;4.83;;;3.30;;
840;SDS011;406;48.566;13.450;2023-07-22T04:14:00;4.93;;;3.83;;
840;SDS011;406;48.566;13.450;2023-07-22T04:16:27;5.50;;;3.90;;
840;SDS011;406;48.566;13.450;2023-07-22T04:18:54;4.00;;;3.53;;
840;SDS011;406;48.566;13.450;2023-07-22T04:21:20;5.40;;;3.57;;
840;SDS011;406;48.566;13.450;2023-07-22T04:23:47;5.13;;;2.83;;
840;SDS011;406;48.566;13.450;2023-07-22T04:26:14;3.83;;;3.50;;
840;SDS011;406;48.566;13.450;2023-07-22T04:28:41;4.30;;;3.83;;
840;SDS011;406;48.566;13.450;2023-07-22T04:31:07;3.37;;;3.07;;
840;SDS011;406;48.566;13.450;2023-07-22T04:33:35;5.63;;;3.97;;
840;SDS011;406;48.566;13.450;2023-07-22T04:36:02;6.53;;;3.50;;
840;SDS011;406;48.566;13.450;2023-07-22T04:38:29;4.10;;;3.67;;
840;SDS011;406;48.566;13.450;2023-07-22T04:40:56;3.13;;;2.80;;
840;SDS011;406;48.566;13.450;2023-07-22T04:43:22;3.17;;;2.87;;
840;SDS011;406;48.566;13.450;2023-07-22T04:45:49;4.63;;;3.60;;
840;SDS011;406;48.566;13.450;2023-07-22T04:48:15;3.83;;;3.33;;
840;SDS011;406;48.566;13.450;2023-07-22T04:50:44;4.67;;;4.00;;
840;SDS011;406;48.566;13.450;2023-07-22T04:53:12;4.10;;;3.70;;
840;SDS011;406;48.566;13.450;2023-07-22T04:55:41;3.93;;;3.57;;
840;SDS011;406;48.566;13.450;2023-07-22T04:58:08;5.37;;;3.87;;
840;SDS011;406;48.566;13.450;2023-07-22T05:00:36;4.80;;;4.03;;
840;SDS011;406;48.566;13.450;2023-07-22T05:03:04;3.80;;;3.17;;
840;SDS011;406;48.566;13.450;2023-07-22T05:05:31;6.67;;;3.83;;
840;SDS011;406;48.566;13.450;2023-07-22T05:07:58;5.90;;;4.77;;
840;SDS011;406;48.566;13.450;2023-07-22T05:10:25;6.33;;;4.30;;
840;SDS011;406;48.566;13.450;2023-07-22T05:12:51;4.77;;;4.27;;
840;SDS011;406;48.566;13.450;2023-07-22T05:15:18;5.80;;;3.37;;
840;SDS011;406;48.566;13.450;2023-07-22T05:17:44;6.43;;;4.27;;
840;SDS011;406;48.566;13.450;2023-07-22T05:20:11;6.57;;;4.80;;
840;SDS011;406;48.566;13.450;2023-07-22T05:22:40;5.80;;;4.40;;
840;SDS011;406;48.566;13.450;2023-07-22T05:25:08;5.10;;;4.60;;
840;SDS011;406;48.566;13.450;2023-07-22T05:27:35;5.73;;;4.30;;
840;SDS011;406;48.566;13.450;2023-07-22T05:30:02;6.00;;;4.60;;
840;SDS011;406;48.566;13.450;2023-07-22T05:32:35;6.83;;;5.20;;
840;SDS011;406;48.566;13.450;2023-07-22T05:35:02;5.77;;;4.83;;
840;SDS011;406;48.566;13.450;2023-07-22T05:37:31;5.17;;;4.27;;
840;SDS011;406;48.566;13.450;2023-07-22T05:39:58;5.87;;;5.27;;
840;SDS011;406;48.566;13.450;2023-07-22T05:42:25;4.83;;;4.10;;
840;SDS011;406;48.566;13.450;2023-07-22T05:44:53;8.20;;;4.70;;
840;SDS011;406;48.566;13.450;2023-07-22T05:47:20;6.27;;;5.13;;
840;SDS011;406;48.566;13.450;2023-07-22T05:49:47;5.17;;;4.03;;
840;SDS011;406;48.566;13.450;2023-07-22T05:52:13;5.80;;;4.70;;
840;SDS011;406;48.566;13.450;2023-07-22T05:54:40;6.10;;;4.30;;
840;SDS011;406;48.566;13.450;2023-07-22T05:57:06;5.33;;;4.67;;
840;SDS011;406;48.566;13.450;2023-07-22T05:59:33;4.60;;;4.20;;
840;SDS011;406;48.566;13.450;2023-07-22T06:02:02;5.03;;;4.10;;
840;SDS011;406;48.566;13.450;2023-07-22T06:04:32;8.20;;;4.70;;
840;SDS011;406;48.566;13.450;2023-07-22T06:06:59;5.90;;;4.30;;
840;SDS011;406;48.566;13.450;2023-07-22T06:09:25;4.43;;;4.03;;
840;SDS011;406;48.566;13.450;2023-07-22T06:11:52;4.50;;;3.80;;
840;SDS011;406;48.566;13.450;2023-07-22T06:14:18;21.57;;;4.90;;
840;SDS011;406;48.566;13.450;2023-07-22T06:16:45;6.30;;;3.87;;
840;SDS011;406;48.566;13.450;2023-07-22T06:19:14;4.17;;;3.40;;
840;SDS011;406;48.566;13.450;2023-07-22T06:21:40;5.77;;;3.87;;
840;SDS011;406;48.566;13.450;2023-07-22T06:24:07;4.80;;;4.23;;
840;SDS011;406;48.566;13.450;2023-07-22T06:26:33;4.27;;;3.63;;
840;SDS011;406;48.566;13.450;2023-07-22T06:29:00;4.70;;;4.20;;
840;SDS011;406;48.566;13.450;2023-07-22T06:31:26;4.00;;;3.40;;
840;SDS011;406;48.566;13.450;2023-07-22T06:33:57;7.80;;;4.40;;
840;SDS011;406;48.566;13.450;2023-07-22T06:36:24;4.03;;;3.30;;
840;SDS011;406;48.566;13.450;2023-07-22T06:38:51;3.53;;;3.23;;
840;SDS011;406;48.566;13.450;2023-07-22T06:41:17;5.17;;;3.40;;
840;SDS011;406;48.566;13.450;2023-07-22T06:43:45;5.50;;;3.70;;
840;SDS011;406;48.566;13.450;2023-07-22T06:46:12;4.77;;;3.30;;
840;SDS011;406;48.566;13.450;2023-07-22T06:48:38;4.40;;;3.33;;
840;SDS011;406;48.566;13.450;2023-07-22T06:51:06;4.43;;;3.80;;
840;SDS011;406;48.566;13.450;2023-07-22T06:53:33;4.20;;;3.40;;
840;SDS011;406;48.566;13.450;2023-07-22T06:55:59;7.70;;;3.20;;
840;SDS011;406;48.566;13.450;2023-07-22T06:58:26;9.93;;;4.10;;
840;SDS011;406;48.566;13.450;2023-07-22T07:00:53;4.97;;;3.37;;
840;SDS011;406;48.566;13.450;2023-07-22T07:03:22;4.23;;;2.60;;
840;SDS011;406;48.566;13.450;2023-07-22T07:05:52;3.43;;;3.13;;
840;SDS011;406;48.566;13.450;2023-07-22T07:08:22;5.53;;;3.90;;
840;SDS011;406;48.566;13.450;2023-07-22T07:10:49;4.60;;;3.63;;
840;SDS011;406;48.566;13.450;2023-07-22T07:13:17;14.50;;;4.40;;
840;SDS011;406;48.566;13.450;2023-07-22T07:15:47;4.97;;;3.03;;
840;SDS011;406;48.566;13.450;2023-07-22T07:18:17;3.50;;;2.50;;
840;SDS011;406;48.566;13.450;2023-07-22T07:20:44;3.43;;;3.03;;
840;SDS011;406;48.566;13.450;2023-07-22T07:23:11;3.67;;;2.60;;
840;SDS011;406;48.566;13.450;2023-07-22T07:25:39;4.73;;;2.87;;
840;SDS011;406;48.566;13.450;2023-07-22T07:28:05;3.37;;;2.80;;
840;SDS011;406;48.566;13.450;2023-07-22T07:30:32;5.03;;;3.53;;
840;SDS011;406;48.566;13.450;2023-07-22T07:32:58;4.07;;;3.20;;
840;SDS011;406;48.566;13.450;2023-07-22T07:35:25;3.80;;;2.63;;
840;SDS011;406;48.566;13.450;2023-07-22T07:37:52;4.60;;;3.20;;
840;SDS011;406;48.566;13.450;2023-07-22T07:40:18;4.20;;;2.83;;
840;SDS011;406;48.566;13.450;2023-07-22T07:42:45;4.57;;;3.87;;
840;SDS011;406;48.566;13.450;2023-07-22T07:45:11;4.10;;;3.40;;
840;SDS011;406;48.566;13.450;2023-07-22T07:47:38;4.80;;;2.80;;
840;SDS011;406;48.566;13.450;2023-07-22T07:50:05;4.07;;;3.03;;
840;SDS011;406;48.566;13.450;2023-07-22T07:52:33;6.80;;;3.40;;
840;SDS011;406;48.566;13.450;2023-07-22T07:54:59;3.17;;;2.40;;
840;SDS011;406;48.566;13.450;2023-07-22T07:57:26;3.63;;;2.80;;
840;SDS011;406;48.566;13.450;2023-07-22T07:59:52;3.40;;;2.63;;
840;SDS011;406;48.566;13.450;2023-07-22T08:02:19;2.80;;;2.50;;
840;SDS011;406;48.566;13.450;2023-07-22T08:04:45;4.17;;;2.40;;
840;SDS011;406;48.566;13.450;2023-07-22T08:07:15;3.40;;;3.10;;
840;SDS011;406;48.566;13.450;2023-07-22T08:09:42;3.17;;;2.47;;
840;SDS011;406;48.566;13.450;2023-07-22T08:12:09;5.70;;;3.57;;
840;SDS011;406;48.566;13.450;2023-07-22T08:14:35;3.10;;;2.80;;
840;SDS011;406;48.566;13.450;2023-07-22T08:17:02;2.90;;;2.50;;
840;SDS011;406;48.566;13.450;2023-07-22T08:19:29;3.00;;;2.70;;
840;SDS011;406;48.566;13.450;2023-07-22T08:21:56;5.17;;;2.60;;
840;SDS011;406;48.566;13.450;2023-07-22T08:24:23;2.63;;;2.30;;
840;SDS011;406;48.566;13.450;2023-07-22T08:26:49;3.43;;;2.70;;
840;SDS011;406;48.566;13.450;2023-07-22T08:29:16;5.20;;;2.70;;
840;SDS011;406;48.566;13.450;2023-07-22T08:31:42;2.97;;;2.43;;
840;SDS011;406;48.566;13.450;2023-07-22T08:34:09;6.33;;;2.80;;
840;SDS011;406;48.566;13.450;2023-07-22T08:36:36;5.43;;;2.33;;
840;SDS011;406;48.566;13.450;2023-07-22T08:39:02;3.03;;;2.77;;
840;SDS011;406;48.566;13.450;2023-07-22T08:41:29;3.03;;;2.60;;
840;SDS011;406;48.566;13.450;2023-07-22T08:43:56;2.97;;;2.50;;
840;SDS011;406;48.566;13.450;2023-07-22T08:46:28;2.90;;;2.00;;
840;SDS011;406;48.566;13.450;2023-07-22T08:48:55;2.50;;;2.07;;
840;SDS011;406;48.566;13.450;2023-07-22T08:51:22;6.30;;;2.50;;
840;SDS011;406;48.566;13.450;2023-07-22T08:53:50;3.30;;;2.30;;
840;SDS011;406;48.566;13.450;2023-07-22T08:56:20;3.30;;;2.20;;
840;SDS011;406;48.566;13.450;2023-07-22T08:58:46;2.80;;;2.27;;
840;SDS011;406;48.566;13.450;2023-07-22T09:01:14;2.40;;;2.00;;
840;SDS011;406;48.566;13.450;2023-07-22T09:03:41;3.00;;;1.53;;
840;SDS011;406;48.566;13.450;2023-07-22T09:06:08;2.77;;;2.00;;
840;SDS011;406;48.566;13.450;2023-07-22T09:08:34;2.90;;;1.83;;
840;SDS011;406;48.566;13.450;2023-07-22T09:11:01;2.53;;;2.30;;
840;SDS011;406;48.566;13.450;2023-07-22T09:13:28;3.13;;;1.90;;
840;SDS011;406;48.566;13.450;2023-07-22T09:15:56;2.20;;;1.63;;
840;SDS011;406;48.566;13.450;2023-07-22T09:18:23;2.07;;;1.87;;
840;SDS011;406;48.566;13.450;2023-07-22T09:20:50;2.37;;;1.80;;
840;SDS011;406;48.566;13.450;2023-07-22T09:23:16;2.10;;;1.90;;
840;SDS011;406;48.566;13.450;2023-07-22T09:25:43;5.10;;;2.30;;
840;SDS011;406;48.566;13.450;2023-07-22T09:28:10;6.43;;;2.30;;
840;SDS011;406;48.566;13.450;2023-07-22T09:30:37;2.73;;;2.23;;
840;SDS011;406;48.566;13.450;2023-07-22T09:33:06;3.30;;;2.30;;
840;SDS011;406;48.566;13.450;2023-07-22T09:35:44;2.07;;;1.87;;
840;SDS011;406;48.566;13.450;2023-07-22T09:38:14;2.87;;;1.60;;
840;SDS011;406;48.566;13.450;2023-07-22T09:40:48;2.30;;;1.90;;
840;SDS011;406;48.566;13.450;2023-07-22T09:43:15;2.50;;;1.73;;
840;SDS011;406;48.566;13.450;2023-07-22T09:45:41;2.20;;;1.93;;
840;SDS011;406;48.566;13.450;2023-07-22T09:48:08;4.33;;;1.73;;
840;SDS011;406;48.566;13.450;2023-07-22T09:50:35;2.73;;;2.30;;
840;SDS011;406;48.566;13.450;2023-07-22T09:53:03;2.13;;;1.63;;
840;SDS011;406;48.566;13.450;2023-07-22T09:55:30;2.83;;;2.10;;
840;SDS011;406;48.566;13.450;2023-07-22T09:57:59;2.30;;;1.63;;
840;SDS011;406;48.566;13.450;2023-07-22T10:00:33;5.17;;;2.27;;
840;SDS011;406;48.566;13.450;2023-07-22T10:03:01;2.53;;;2.20;;
840;SDS011;406;48.566;13.450;2023-07-22T10:05:32;2.90;;;2.43;;
840;SDS011;406;48.566;13.450;2023-07-22T10:08:00;5.20;;;2.20;;
840;SDS011;406;48.566;13.450;2023-07-22T10:10:31;2.40;;;2.10;;
840;SDS011;406;48.566;13.450;2023-07-22T10:12:59;3.83;;;2.50;;
840;SDS011;406;48.566;13.450;2023-07-22T10:15:28;4.30;;;2.27;;
840;SDS011;406;48.566;13.450;2023-07-22T10:17:56;4.70;;;2.00;;
840;SDS011;406;48.566;13.450;2023-07-22T10:20:23;2.70;;;2.27;;
840;SDS011;406;48.566;13.450;2023-07-22T10:22:50;2.30;;;1.70;;
840;SDS011;406;48.566;13.450;2023-07-22T10:25:18;3.10;;;2.50;;
840;SDS011;406;48.566;13.450;2023-07-22T10:27:46;2.47;;;2.10;;
840;SDS011;406;48.566;13.450;2023-07-22T10:30:16;2.90;;;2.07;;
840;SDS011;406;48.566;13.450;2023-07-22T10:32:45;3.73;;;2.43;;
840;SDS011;406;48.566;13.450;2023-07-22T10:38:16;2.43;;;2.23;;
840;SDS011;406;48.566;13.450;2023-07-22T10:40:46;2.97;;;1.63;;
840;SDS011;406;48.566;13.450;2023-07-22T10:43:15;2.40;;;1.90;;
840;SDS011;406;48.566;13.450;2023-07-22T10:45:49;4.50;;;1.77;;
840;SDS011;406;48.566;13.450;2023-07-22T10:48:18;3.60;;;2.23;;
840;SDS011;406;48.566;13.450;2023-07-22T10:50:46;2.37;;;1.60;;
840;SDS011;406;48.566;13.450;2023-07-22T10:56:24;3.53;;;1.90;;
840;SDS011;406;48.566;13.450;2023-07-22T11:06:51;2.13;;;1.73;;
840;SDS011;406;48.566;13.450;2023-07-22T11:11:56;3.20;;;2.40;;
840;SDS011;406;48.566;13.450;2023-07-22T11:14:25;3.30;;;2.57;;
840;SDS011;406;48.566;13.450;2023-07-22T11:16:53;3.37;;;2.20;;
840;SDS011;406;48.566;13.450;2023-07-22T11:19:21;3.93;;;2.07;;
840;SDS011;406;48.566;13.450;2023-07-22T11:21:50;2.00;;;1.70;;
840;SDS011;406;48.566;13.450;2023-07-22T11:24:18;2.60;;;2.17;;
840;SDS011;406;48.566;13.450;2023-07-22T11:26:45;2.83;;;1.67;;
840;SDS011;406;48.566;13.450;2023-07-22T11:29:12;2.07;;;1.80;;
840;SDS011;406;48.566;13.450;2023-07-22T11:31:39;2.73;;;2.40;;
840;SDS011;406;48.566;13.450;2023-07-22T11:34:11;1.93;;;1.73;;
840;SDS011;406;48.566;13.450;2023-07-22T11:36:38;3.30;;;2.00;;
840;SDS011;406;48.566;13.450;2023-07-22T11:39:06;1.80;;;1.67;;
840;SDS011;406;48.566;13.450;2023-07-22T11:41:37;2.17;;;1.70;;
840;SDS011;406;48.566;13.450;2023-07-22T11:44:04;2.47;;;1.87;;
840;SDS011;406;48.566;13.450;2023-07-22T11:46:51;2.70;;;2.10;;
840;SDS011;406;48.566;13.450;2023-07-22T11:49:25;2.70;;;1.83;;
840;SDS011;406;48.566;13.450;2023-07-22T11:52:06;2.43;;;2.10;;
840;SDS011;406;48.566;13.450;2023-07-22T11:54:39;4.83;;;2.20;;
840;SDS011;406;48.566;13.450;2023-07-22T11:57:12;2.30;;;1.53;;
840;SDS011;406;48.566;13.450;2023-07-22T11:59:40;1.60;;;1.50;;
840;SDS011;406;48.566;13.450;2023-07-22T12:02:16;2.87;;;1.83;;
840;SDS011;406;48.566;13.450;2023-07-22T12:04:51;3.73;;;1.93;;
840;SDS011;406;48.566;13.450;2023-07-22T12:07:27;3.47;;;1.70;;
840;SDS011;406;48.566;13.450;2023-07-22T12:09:57;1.97;;;1.60;;
840;SDS011;406;48.566;13.450;2023-07-22T12:12:35;1.90;;;1.53;;
840;SDS011;406;48.566;13.450;2023-07-22T12:15:20;1.80;;;1.40;;
840;SDS011;406;48.566;13.450;2023-07-22T12:20:26;4.17;;;2.07;;
840;SDS011;406;48.566;13.450;2023-07-22T12:22:54;2.03;;;1.67;;
840;SDS011;406;48.566;13.450;2023-07-22T12:25:21;2.30;;;1.97;;
840;SDS011;406;48.566;13.450;2023-07-22T12:27:48;3.87;;;1.77;;
840;SDS011;406;48.566;13.450;2023-07-22T12:30:14;2.27;;;1.67;;
840;SDS011;406;48.566;13.450;2023-07-22T12:32:45;2.60;;;1.90;;
840;SDS011;406;48.566;13.450;2023-07-22T12:35:12;2.80;;;1.93;;
840;SDS011;406;48.566;13.450;2023-07-22T12:37:39;3.03;;;1.50;;
840;SDS011;406;48.566;13.450;2023-07-22T12:40:06;2.10;;;1.77;;
840;SDS011;406;48.566;13.450;2023-07-22T12:42:35;2.80;;;1.50;;
840;SDS011;406;48.566;13.450;2023-07-22T12:45:03;2.10;;;1.83;;
840;SDS011;406;48.566;13.450;2023-07-22T12:47:30;2.77;;;1.90;;
840;SDS011;406;48.566;13.450;2023-07-22T12:49:57;4.30;;;1.77;;
840;SDS011;406;48.566;13.450;2023-07-22T12:52:24;3.30;;;2.07;;
840;SDS011;406;48.566;13.450;2023-07-22T12:54:50;1.50;;;1.40;;
840;SDS011;406;48.566;13.450;2023-07-22T12:57:17;2.23;;;2.00;;
840;SDS011;406;48.566;13.450;2023-07-22T12:59:43;1.83;;;1.60;;
840;SDS011;406;48.566;13.450;2023-07-22T13:02:13;2.47;;;2.07;;
840;SDS011;406;48.566;13.450;2023-07-22T13:04:40;2.07;;;1.60;;
840;SDS011;406;48.566;13.450;2023-07-22T13:07:06;2.60;;;1.90;;
840;SDS011;406;48.566;13.450;2023-07-22T13:09:33;3.63;;;1.70;;
840;SDS011;406;48.566;13.450;2023-07-22T13:12:03;4.43;;;2.00;;
840;SDS011;406;48.566;13.450;2023-07-22T13:14:29;2.57;;;2.23;;
840;SDS011;406;48.566;13.450;2023-07-22T13:16:56;2.23;;;1.87;;
840;SDS011;406;48.566;13.450;2023-07-22T13:19:22;1.53;;;1.20;;
840;SDS011;406;48.566;13.450;2023-07-22T13:21:49;1.93;;;1.57;;
840;SDS011;406;48.566;13.450;2023-07-22T13:24:15;2.60;;;2.03;;
840;SDS011;406;48.566;13.450;2023-07-22T13:26:42;2.07;;;1.53;;
840;SDS011;406;48.566;13.450;2023-07-22T13:29:09;1.90;;;1.53;;
840;SDS011;406;48.566;13.450;2023-07-22T13:31:35;1.97;;;1.67;;
840;SDS011;406;48.566;13.450;2023-07-22T13:34:02;2.30;;;1.80;;
840;SDS011;406;48.566;13.450;2023-07-22T13:36:29;4.40;;;1.97;;
840;SDS011;406;48.566;13.450;2023-07-22T13:38:55;2.27;;;1.63;;
840;SDS011;406;48.566;13.450;2023-07-22T13:41:22;2.10;;;1.80;;
840;SDS011;406;48.566;13.450;2023-07-22T13:43:48;2.20;;;1.70;;
840;SDS011;406;48.566;13.450;2023-07-22T13:46:15;2.63;;;1.77;;
840;SDS011;406;48.566;13.450;2023-07-22T13:48:41;2.67;;;1.67;;
840;SDS011;406;48.566;13.450;2023-07-22T13:51:08;2.70;;;1.83;;
840;SDS011;406;48.566;13.450;2023-07-22T13:53:34;1.80;;;1.37;;
840;SDS011;406;48.566;13.450;2023-07-22T13:56:01;1.80;;;1.20;;
840;SDS011;406;48.566;13.450;2023-07-22T13:58:27;2.10;;;1.67;;
840;SDS011;406;48.566;13.450;2023-07-22T14:00:54;1.80;;;1.47;;
840;SDS011;406;48.566;13.450;2023-07-22T14:03:20;3.17;;;1.70;;
840;SDS011;406;48.566;13.450;2023-07-22T14:05:47;1.93;;;1.73;;
840;SDS011;406;48.566;13.450;2023-07-22T14:08:14;4.27;;;1.67;;
840;SDS011;406;48.566;13.450;2023-07-22T14:10:40;2.30;;;1.50;;
840;SDS011;406;48.566;13.450;2023-07-22T14:13:07;2.43;;;1.80;;
840;SDS011;406;48.566;13.450;2023-07-22T14:15:33;3.20;;;1.80;;
840;SDS011;406;48.566;13.450;2023-07-22T14:18:00;2.00;;;1.73;;
840;SDS011;406;48.566;13.450;2023-07-22T14:20:26;1.90;;;1.27;;
840;SDS011;406;48.566;13.450;2023-07-22T14:22:54;2.13;;;1.80;;
840;SDS011;406;48.566;13.450;2023-07-22T14:25:21;2.93;;;1.80;;
840;SDS011;406;48.566;13.450;2023-07-22T14:27:47;3.07;;;1.63;;
840;SDS011;406;48.566;13.450;2023-07-22T14:30:14;1.97;;;1.60;;
840;SDS011;406;48.566;13.450;2023-07-22T14:32:40;1.73;;;1.50;;
840;SDS011;406;48.566;13.450;2023-07-22T14:35:07;1.80;;;1.63;;
840;SDS011;406;48.566;13.450;2023-07-22T14:37:35;2.40;;;2.20;;
840;SDS011;406;48.566;13.450;2023-07-22T14:40:02;2.47;;;1.87;;
840;SDS011;406;48.566;13.450;2023-07-22T14:42:31;3.00;;;2.37;;
840;SDS011;406;48.566;13.450;2023-07-22T14:44:57;2.10;;;1.83;;
840;SDS011;406;48.566;13.450;2023-07-22T14:47:24;2.20;;;1.60;;
840;SDS011;406;48.566;13.450;2023-07-22T14:49:51;2.10;;;1.60;;
840;SDS011;406;48.566;13.450;2023-07-22T14:52:19;3.80;;;2.50;;
840;SDS011;406;48.566;13.450;2023-07-22T14:54:45;2.47;;;1.80;;
840;SDS011;406;48.566;13.450;2023-07-22T14:57:12;2.50;;;1.90;;
840;SDS011;406;48.566;13.450;2023-07-22T14:59:38;2.37;;;2.17;;
840;SDS011;406;48.566;13.450;2023-07-22T15:02:05;1.83;;;1.40;;
840;SDS011;406;48.566;13.450;2023-07-22T15:04:32;4.67;;;2.17;;
840;SDS011;406;48.566;13.450;2023-07-22T15:06:58;3.80;;;1.80;;
840;SDS011;406;48.566;13.450;2023-07-22T15:09:25;5.40;;;1.80;;
840;SDS011;406;48.566;13.450;2023-07-22T15:11:51;2.40;;;1.70;;
840;SDS011;406;48.566;13.450;2023-07-22T15:14:19;3.47;;;1.30;;
840;SDS011;406;48.566;13.450;2023-07-22T15:16:45;3.53;;;2.23;;
840;SDS011;406;48.566;13.450;2023-07-22T15:19:12;1.83;;;1.60;;
840;SDS011;406;48.566;13.450;2023-07-22T15:21:38;2.80;;;1.80;;
840;SDS011;406;48.566;13.450;2023-07-22T15:24:05;3.43;;;2.30;;
840;SDS011;406;48.566;13.450;2023-07-22T15:26:31;2.93;;;2.10;;
840;SDS011;406;48.566;13.450;2023-07-22T15:28:58;3.07;;;2.20;;
840;SDS011;406;48.566;13.450;2023-07-22T15:31:24;2.00;;;1.80;;
840;SDS011;406;48.566;13.450;2023-07-22T15:33:51;3.90;;;1.67;;
840;SDS011;406;48.566;13.450;2023-07-22T15:36:18;2.40;;;1.90;;
840;SDS011;406;48.566;13.450;2023-07-22T15:38:45;2.23;;;2.03;;
840;SDS011;406;48.566;13.450;2023-07-22T15:41:11;2.70;;;1.80;;
840;SDS011;406;48.566;13.450;2023-07-22T15:43:38;2.33;;;1.40;;
840;SDS011;406;48.566;13.450;2023-07-22T15:46:05;2.23;;;1.83;;
840;SDS011;406;48.566;13.450;2023-07-22T15:48:31;2.13;;;1.90;;
840;SDS011;406;48.566;13.450;2023-07-22T15:50:58;2.30;;;2.00;;